Inicio METAR Ruta Wind Satelite

Informe Meteorológico

Fecha: 2021/09/21 15:04:28 Local
2021.09.21 20:04 UTC


Operación:
SKCO 212000Z 28006KT 9999 SCT020 28/24 Q1010 RMK A2991 =